createdAt,value
2022-09-18T00:02:32.117Z,2.17
2022-09-18T00:06:36.310Z,1.30
2022-09-18T00:10:42.089Z,1.23
2022-09-18T00:14:43.491Z,1.88
2022-09-18T00:18:45.446Z,1.92
2022-09-18T00:22:47.185Z,1.88
2022-09-18T00:26:49.310Z,1.77
2022-09-18T00:30:50.667Z,1.67
2022-09-18T00:34:52.058Z,1.50
2022-09-18T00:38:53.798Z,1.70
2022-09-18T00:42:55.407Z,1.63
2022-09-18T00:47:09.510Z,1.88
2022-09-18T00:51:11.513Z,1.88
2022-09-18T00:55:14.001Z,2.10
2022-09-18T00:59:22.747Z,1.80
2022-09-18T01:03:24.165Z,1.30
2022-09-18T01:07:50.666Z,1.63
2022-09-18T01:11:58.101Z,2.15
2022-09-18T01:16:10.636Z,1.63
2022-09-18T01:20:42.076Z,1.52
2022-09-18T01:24:50.370Z,2.40
2022-09-18T01:28:57.992Z,1.40
2022-09-18T01:33:10.257Z,1.45
2022-09-18T01:37:18.277Z,1.75
2022-09-18T01:41:23.264Z,1.95
2022-09-18T01:45:28.965Z,1.42
2022-09-18T01:49:34.082Z,1.50
2022-09-18T01:53:42.301Z,1.40
2022-09-18T01:57:51.060Z,2.80
2022-09-18T02:01:54.168Z,1.70
2022-09-18T02:06:00.240Z,1.67
2022-09-18T02:10:02.011Z,1.40
2022-09-18T02:14:08.995Z,1.30
2022-09-18T02:18:13.994Z,1.67
2022-09-18T02:22:18.330Z,1.02
2022-09-18T02:26:19.894Z,1.35
2022-09-18T02:30:21.528Z,1.70
2022-09-18T02:34:22.956Z,1.60
2022-09-18T02:39:06.057Z,1.92
2022-09-18T02:43:26.203Z,1.98
2022-09-18T02:47:52.212Z,1.63
2022-09-18T02:52:05.568Z,1.60
2022-09-18T02:56:14.338Z,1.70
2022-09-18T03:00:18.707Z,1.40
2022-09-18T03:04:23.592Z,1.70
2022-09-18T03:08:25.383Z,2.00
2022-09-18T03:12:26.768Z,1.95
2022-09-18T03:16:28.176Z,1.60
2022-09-18T03:20:29.588Z,2.55
2022-09-18T03:24:31.188Z,1.38
2022-09-18T03:28:33.073Z,1.45
2022-09-18T03:32:34.672Z,1.30
2022-09-18T03:36:36.167Z,1.25
2022-09-18T03:40:38.554Z,1.48
2022-09-18T03:44:39.949Z,1.33
2022-09-18T03:48:41.356Z,1.30
2022-09-18T03:52:45.607Z,1.10
2022-09-18T03:56:49.214Z,1.65
2022-09-18T04:00:50.612Z,1.10
2022-09-18T04:04:53.849Z,1.27
2022-09-18T04:08:55.417Z,1.35
2022-09-18T04:12:56.802Z,0.93
2022-09-18T04:16:58.169Z,1.30
2022-09-18T04:20:59.599Z,1.13
2022-09-18T04:25:01.154Z,1.33
2022-09-18T04:29:03.240Z,1.20
2022-09-18T04:33:05.336Z,1.58
2022-09-18T04:37:10.165Z,1.02
2022-09-18T04:41:11.892Z,1.10
2022-09-18T04:45:13.383Z,1.08
2022-09-18T04:49:14.778Z,1.77
2022-09-18T04:53:16.390Z,1.52
2022-09-18T04:57:17.770Z,1.30
2022-09-18T05:01:19.295Z,1.27
2022-09-18T05:05:20.822Z,1.63
2022-09-18T05:09:22.307Z,1.13
2022-09-18T05:13:24.058Z,1.20
2022-09-18T05:17:25.455Z,1.27
2022-09-18T05:21:26.798Z,1.42
2022-09-18T05:25:29.407Z,1.55
2022-09-18T05:29:30.781Z,1.33
2022-09-18T05:33:32.347Z,1.65
2022-09-18T05:37:33.761Z,0.98
2022-09-18T05:41:35.189Z,1.40
2022-09-18T05:45:37.077Z,1.42
2022-09-18T05:49:38.446Z,1.42
2022-09-18T05:53:42.040Z,1.88
2022-09-18T05:57:43.362Z,1.40
2022-09-18T06:01:47.139Z,2.83
2022-09-18T06:05:52.903Z,1.67
2022-09-18T06:09:54.260Z,1.42
2022-09-18T06:13:55.671Z,1.67
2022-09-18T06:17:57.090Z,1.48
2022-09-18T06:21:58.469Z,1.50
2022-09-18T06:26:02.634Z,1.60
2022-09-18T06:30:05.253Z,1.77
2022-09-18T06:34:06.698Z,2.17
2022-09-18T06:38:09.583Z,1.80
2022-09-18T06:42:10.983Z,2.00
2022-09-18T06:46:12.450Z,1.90
2022-09-18T06:50:13.917Z,2.15
2022-09-18T06:54:16.294Z,2.53
2022-09-18T06:58:18.906Z,1.70
2022-09-18T07:02:20.378Z,1.95
2022-09-18T07:06:22.225Z,2.63
2022-09-18T07:10:23.901Z,2.33
2022-09-18T07:14:25.366Z,1.98
2022-09-18T07:18:26.755Z,2.15
2022-09-18T07:22:28.707Z,1.98
2022-09-18T07:26:30.145Z,2.00
2022-09-18T07:30:31.556Z,2.25
2022-09-18T07:34:33.088Z,2.22
2022-09-18T07:38:34.702Z,1.73
2022-09-18T07:42:36.344Z,1.75
2022-09-18T07:46:38.097Z,1.50
2022-09-18T07:50:39.939Z,1.67
2022-09-18T07:54:41.327Z,2.10
2022-09-18T07:58:42.732Z,2.03
2022-09-18T08:02:44.200Z,1.52
2022-09-18T08:06:46.745Z,2.20
2022-09-18T08:10:48.109Z,1.80
2022-09-18T08:14:49.465Z,1.20
2022-09-18T08:18:50.932Z,1.50
2022-09-18T08:22:52.438Z,1.40
2022-09-18T08:26:53.902Z,1.33
2022-09-18T08:30:56.949Z,1.50
2022-09-18T08:35:00.132Z,1.70
2022-09-18T08:39:01.570Z,1.83
2022-09-18T08:43:19.405Z,1.75
2022-09-18T08:47:39.942Z,1.20
2022-09-18T08:51:48.763Z,1.70
2022-09-18T08:55:51.645Z,2.08
2022-09-18T08:59:57.774Z,1.58
2022-09-18T09:04:14.776Z,2.00
2022-09-18T09:08:29.238Z,1.70
2022-09-18T09:12:59.530Z,1.60
2022-09-18T09:17:05.673Z,1.60
2022-09-18T09:21:38.746Z,1.88
2022-09-18T09:25:59.937Z,1.65
2022-09-18T09:30:11.410Z,1.52
2022-09-18T09:34:18.010Z,2.00
2022-09-18T09:38:47.102Z,1.70
2022-09-18T09:42:53.171Z,1.83
2022-09-18T09:46:54.591Z,1.55
2022-09-18T09:51:10.957Z,2.05
2022-09-18T09:55:16.812Z,1.80
2022-09-18T09:59:35.427Z,1.25
2022-09-18T10:03:54.916Z,1.50
2022-09-18T10:08:04.798Z,1.45
2022-09-18T10:12:15.356Z,1.58
2022-09-18T10:16:19.712Z,1.70
2022-09-18T10:20:27.585Z,1.92
2022-09-18T10:28:33.024Z,1.60
2022-09-18T10:32:39.511Z,1.42
2022-09-18T10:36:43.356Z,1.30
2022-09-18T10:41:16.673Z,1.65
2022-09-18T10:45:26.811Z,1.05
2022-09-18T10:49:32.293Z,1.13
2022-09-18T10:53:38.177Z,1.23
2022-09-18T10:57:45.393Z,2.10
2022-09-18T11:01:46.783Z,1.05
2022-09-18T11:05:59.048Z,0.90
2022-09-18T11:10:07.533Z,0.90
2022-09-18T11:14:33.248Z,1.45
2022-09-18T11:18:34.709Z,1.25
2022-09-18T11:22:42.099Z,1.08
2022-09-18T11:26:55.711Z,1.20
2022-09-18T11:31:00.509Z,1.02
2022-09-18T11:35:03.943Z,0.93
2022-09-18T11:39:13.613Z,1.95
2022-09-18T11:43:29.797Z,0.85
2022-09-18T11:47:36.910Z,0.80
2022-09-18T11:51:57.629Z,0.73
2022-09-18T11:56:14.423Z,0.85
2022-09-18T12:00:21.334Z,0.82
2022-09-18T12:04:42.494Z,0.80
2022-09-18T12:08:52.373Z,0.85
2022-09-18T12:13:27.053Z,1.20
2022-09-18T12:17:39.182Z,0.90
2022-09-18T12:21:49.775Z,0.80
2022-09-18T12:26:16.777Z,0.90
2022-09-18T12:30:19.254Z,0.80
2022-09-18T12:34:29.765Z,0.80
2022-09-18T12:38:47.008Z,1.00
2022-09-18T12:43:06.645Z,1.13
2022-09-18T12:47:19.209Z,0.80
2022-09-18T12:51:44.151Z,0.77
2022-09-18T12:55:57.565Z,0.88
2022-09-18T13:00:08.900Z,0.95
2022-09-18T13:04:21.305Z,0.60
2022-09-18T13:08:33.924Z,0.80
2022-09-18T13:12:39.772Z,0.80
2022-09-18T13:16:50.202Z,0.65
2022-09-18T13:20:52.638Z,1.10
2022-09-18T13:24:55.639Z,0.80
2022-09-18T13:28:57.213Z,1.00
2022-09-18T13:32:59.343Z,0.80
2022-09-18T13:37:06.387Z,1.13
2022-09-18T13:41:08.674Z,1.17
2022-09-18T13:45:12.817Z,0.90
2022-09-18T13:49:33.355Z,0.85
2022-09-18T13:53:41.838Z,1.13
2022-09-18T13:57:44.944Z,0.88
2022-09-18T14:01:46.560Z,0.90
2022-09-18T14:05:48.071Z,1.00
2022-09-18T14:09:53.489Z,0.88
2022-09-18T14:13:56.965Z,0.80
2022-09-18T14:18:31.585Z,0.70
2022-09-18T14:22:35.725Z,0.85
2022-09-18T14:26:40.100Z,0.90
2022-09-18T14:30:41.575Z,0.82
2022-09-18T14:34:44.012Z,1.17
2022-09-18T14:38:45.576Z,0.80
2022-09-18T14:42:47.456Z,1.08
2022-09-18T14:46:57.332Z,0.82
2022-09-18T14:51:07.014Z,0.77
2022-09-18T14:55:11.166Z,0.82
2022-09-18T14:59:16.332Z,0.77
2022-09-18T15:03:27.880Z,0.80
2022-09-18T15:07:29.625Z,0.70
2022-09-18T15:11:41.991Z,1.20
2022-09-18T15:16:01.498Z,1.00
2022-09-18T15:20:16.722Z,0.88
2022-09-18T15:24:21.843Z,0.70
2022-09-18T15:28:38.586Z,0.70
2022-09-18T15:33:03.321Z,1.15
2022-09-18T15:37:27.760Z,0.73
2022-09-18T15:42:02.013Z,1.17
2022-09-18T15:46:12.692Z,0.82
2022-09-18T15:50:19.861Z,1.00
2022-09-18T15:54:23.848Z,0.98
2022-09-18T15:58:45.192Z,0.85
2022-09-18T16:03:24.027Z,1.05
2022-09-18T16:07:28.892Z,0.82
2022-09-18T16:11:37.220Z,0.80
2022-09-18T16:15:40.408Z,0.73
2022-09-18T16:19:43.968Z,0.82
2022-09-18T16:23:50.614Z,1.00
2022-09-18T16:27:54.438Z,0.82
2022-09-18T16:31:56.183Z,0.90
2022-09-18T16:36:04.361Z,0.88
2022-09-18T16:40:12.448Z,0.80
2022-09-18T16:44:15.280Z,0.80
2022-09-18T16:48:16.957Z,1.08
2022-09-18T16:52:18.398Z,0.93
2022-09-18T16:56:33.006Z,1.10
2022-09-18T17:00:35.394Z,1.15
2022-09-18T17:04:36.798Z,1.40
2022-09-18T17:08:38.186Z,0.93
2022-09-18T17:12:40.976Z,2.15
2022-09-18T17:16:44.817Z,0.77
2022-09-18T17:20:46.587Z,1.15
2022-09-18T17:24:48.036Z,0.98
2022-09-18T17:28:49.765Z,0.60
2022-09-18T17:32:51.412Z,1.25
2022-09-18T17:36:52.890Z,0.90
2022-09-18T17:40:58.711Z,0.82
2022-09-18T17:45:00.128Z,0.80
2022-09-18T17:49:01.908Z,1.05
2022-09-18T17:53:06.661Z,1.02
2022-09-18T17:57:14.692Z,0.80
2022-09-18T18:01:18.102Z,0.95
2022-09-18T18:05:19.854Z,0.75
2022-09-18T18:09:21.277Z,1.00
2022-09-18T18:13:23.203Z,0.98
2022-09-18T18:17:24.682Z,0.90
2022-09-18T18:21:26.960Z,0.90
2022-09-18T18:25:28.475Z,0.80
2022-09-18T18:29:29.824Z,0.77
2022-09-18T18:33:32.470Z,0.85
2022-09-18T18:37:33.853Z,0.77
2022-09-18T18:41:35.925Z,1.05
2022-09-18T18:45:37.480Z,1.20
2022-09-18T18:49:39.600Z,0.90
2022-09-18T18:53:42.230Z,0.75
2022-09-18T18:57:43.705Z,0.95
2022-09-18T19:01:45.557Z,0.80
2022-09-18T19:05:47.821Z,1.23
2022-09-18T19:09:49.240Z,1.02
2022-09-18T19:13:52.138Z,0.68
2022-09-18T19:17:55.410Z,0.93
2022-09-18T19:21:59.482Z,0.80
2022-09-18T19:26:02.619Z,0.90
2022-09-18T19:30:04.239Z,1.00
2022-09-18T19:34:06.363Z,0.90
2022-09-18T19:38:07.994Z,0.95
2022-09-18T19:42:12.285Z,0.90
2022-09-18T19:46:24.115Z,0.93
2022-09-18T19:50:31.109Z,0.80
2022-09-18T19:54:32.482Z,0.63
2022-09-18T19:58:35.794Z,1.20
2022-09-18T20:02:37.228Z,1.05
2022-09-18T20:06:40.441Z,1.27
2022-09-18T20:10:42.086Z,1.13
2022-09-18T20:14:43.813Z,1.15
2022-09-18T20:18:46.393Z,0.90
2022-09-18T20:22:47.754Z,1.00
2022-09-18T20:26:49.829Z,0.85
2022-09-18T20:30:51.286Z,1.08
2022-09-18T20:34:53.698Z,1.00
2022-09-18T20:38:57.911Z,1.10
2022-09-18T20:43:00.187Z,1.10
2022-09-18T20:47:06.968Z,0.98
2022-09-18T20:51:10.766Z,1.17
2022-09-18T20:55:17.382Z,1.50
2022-09-18T20:59:19.313Z,1.10
2022-09-18T21:03:21.176Z,0.85
2022-09-18T21:07:24.476Z,0.88
2022-09-18T21:11:29.417Z,1.08
2022-09-18T21:15:32.012Z,0.93
2022-09-18T21:19:34.386Z,0.60
2022-09-18T21:23:56.549Z,1.58
2022-09-18T21:27:58.140Z,0.95
2022-09-18T21:32:00.446Z,0.70
2022-09-18T21:36:02.364Z,0.85
2022-09-18T21:40:04.312Z,0.70
2022-09-18T21:44:08.738Z,1.05
2022-09-18T21:48:12.889Z,0.88
2022-09-18T21:52:14.731Z,1.17
2022-09-18T21:56:18.550Z,0.88
2022-09-18T22:00:20.083Z,1.00
2022-09-18T22:04:27.235Z,1.17
2022-09-18T22:08:31.762Z,0.90
2022-09-18T22:12:33.156Z,0.90
2022-09-18T22:16:35.309Z,0.90
2022-09-18T22:20:37.486Z,1.00
2022-09-18T22:24:39.237Z,0.90
2022-09-18T22:28:41.319Z,1.02
2022-09-18T22:32:42.669Z,0.88
2022-09-18T22:36:45.345Z,1.00
2022-09-18T22:40:46.772Z,1.13
2022-09-18T22:44:48.213Z,1.70
2022-09-18T22:48:49.857Z,0.98
2022-09-18T22:52:51.232Z,1.58
2022-09-18T22:56:53.180Z,1.38
2022-09-18T23:00:54.557Z,1.27
2022-09-18T23:04:56.706Z,1.30
2022-09-18T23:09:00.127Z,1.38
2022-09-18T23:13:01.518Z,1.30
2022-09-18T23:17:02.934Z,1.20
2022-09-18T23:21:09.641Z,0.80
2022-09-18T23:25:11.076Z,0.85
2022-09-18T23:29:14.730Z,0.82
2022-09-18T23:33:16.123Z,0.70
2022-09-18T23:37:17.508Z,0.70
2022-09-18T23:41:19.041Z,0.50
2022-09-18T23:45:20.423Z,0.50
2022-09-18T23:49:23.398Z,0.60
2022-09-18T23:53:24.994Z,0.50
2022-09-18T23:57:26.722Z,0.50
